MOL Maxim — V7TU3 — position and weather

sailwx.info

Track history (hours):
 
Tides and Currents Weather Stations Pressure Air Temp Water Temp Dewpoint Dewpoint Depression Visibility Wind Speed Wind Dir Waves Ship Positions

MOL Maxim

Last reported at 2018-Apr-20 06:06 UTC. Time now 2018-Apr-24 14:31 UTC.
Position N 38°10' W 124°06'.

Length 302 m; draft 12.2 m.

Type: Ship (hazmat cat A). MMSI: 538003886.

Date/timePositionNaut miles runAvg speedWind from/ knotsBaromVisibWave heightAir tempDewpointWater temp
2018-Apr-20 06:06N 38°10' W 124°06'514.2
2018-Apr-20 05:45N 38°10' W 123°59'514.4
2018-Apr-20 05:26N 38°10' W 123°53'714.3
2018-Apr-20 04:58N 38°10' W 123°45'714.2
2018-Apr-20 04:30N 38°10' W 123°37'713.7
2018-Apr-20 04:00N 38°09' W 123°28'713.0
2018-Apr-20 03:30N 38°08' W 123°20'612.6
2018-Apr-20 03:00N 38°04' W 123°14'612.9
2018-Apr-20 02:30N 37°59' W 123°09'713.0
2018-Apr-20 02:00N 37°56' W 123°02'713.3
2018-Apr-20 01:30N 37°52' W 122°55'713.5
2018-Apr-20 01:00N 37°49' W 122°47'612.7
2018-Apr-20 00:30N 37°45' W 122°41'3 6.5
2018-Apr-20 00:00N 37°46' W 122°37'713.1
2018-Apr-19 23:30N 37°49' W 122°29'510.9
2018-Apr-19 23:00N 37°48' W 122°23'2 4.7
2018-Apr-19 22:31N 37°49' W 122°20'0 0.4
2018-Apr-19 21:58N 37°49' W 122°20'0 0.0
2018-Apr-19 21:28N 37°49' W 122°20'0 0.0
2018-Apr-19 20:55N 37°49' W 122°20'0 0.0
2018-Apr-19 20:28N 37°49' W 122°20'0 0.0
2018-Apr-19 19:58N 37°49' W 122°20'0 0.0
2018-Apr-19 19:28N 37°49' W 122°20'0 0.0
2018-Apr-19 18:58N 37°49' W 122°20'0 0.0
2018-Apr-19 18:28N 37°49' W 122°20'0 0.0
2018-Apr-19 17:58N 37°49' W 122°20'0 0.0
2018-Apr-19 17:28N 37°49' W 122°20'0 0.0
2018-Apr-19 16:58N 37°49' W 122°20'0 0.0
2018-Apr-19 16:28N 37°49' W 122°20'0 0.0
2018-Apr-19 15:58N 37°49' W 122°20'0 0.0
2018-Apr-19 15:28N 37°49' W 122°20'0 0.0
2018-Apr-19 14:58N 37°49' W 122°20'0 0.0
2018-Apr-19 14:28N 37°49' W 122°20'0 0.0
2018-Apr-19 13:58N 37°49' W 122°20'0 0.0
2018-Apr-19 13:25N 37°49' W 122°20'0 0.0
2018-Apr-19 12:58N 37°49' W 122°20'0 0.0
2018-Apr-19 12:28N 37°49' W 122°20'0 0.0
2018-Apr-19 11:58N 37°49' W 122°20'0 0.0
2018-Apr-19 11:28N 37°49' W 122°20'0 0.0
2018-Apr-19 10:58N 37°49' W 122°20'0 0.0
2018-Apr-19 10:28N 37°49' W 122°20'0 0.0
2018-Apr-19 09:55N 37°49' W 122°20'0 0.0
2018-Apr-19 09:28N 37°49' W 122°20'0 0.0
2018-Apr-19 08:58N 37°49' W 122°20'0 0.0
2018-Apr-19 08:28N 37°49' W 122°20'0 0.1
2018-Apr-19 07:58N 37°49' W 122°20'0 0.1
2018-Apr-19 07:28N 37°49' W 122°20'0 0.0
2018-Apr-19 06:58N 37°49' W 122°20'0 0.0
2018-Apr-19 06:28N 37°49' W 122°20'0 0.0
2018-Apr-19 05:58N 37°49' W 122°20'0 0.0
2018-Apr-19 05:28N 37°49' W 122°20'0 0.0
2018-Apr-19 04:58N 37°49' W 122°20'0 0.0
2018-Apr-19 04:28N 37°49' W 122°20'0 0.0
2018-Apr-19 03:58N 37°49' W 122°20'0 0.0
2018-Apr-19 03:28N 37°49' W 122°20'0 0.0
2018-Apr-19 02:58N 37°49' W 122°20'0 0.0
2018-Apr-19 02:28N 37°49' W 122°20'0 0.0
2018-Apr-19 01:58N 37°49' W 122°20'0 0.0
2018-Apr-19 01:28N 37°49' W 122°20'0 0.0
2018-Apr-19 00:58N 37°49' W 122°20'0 0.0
2018-Apr-19 00:30N 37°49' W 122°20'2 3.0
2018-Apr-19 00:00N 37°48' W 122°22'3 6.7
2018-Apr-18 23:30N 37°49' W 122°26'4 7.4
2018-Apr-18 23:00N 37°48' W 122°30'815.1
2018-Apr-18 22:30N 37°46' W 122°39'510.2
2018-Apr-18 22:00N 37°41' W 122°40'611.1
2018-Apr-18 21:30N 37°35' W 122°40'511.0
2018-Apr-18 21:00N 37°30' W 122°40'511.0
2018-Apr-18 20:30N 37°24' W 122°40'611.1
2018-Apr-18 20:00N 37°19' W 122°40'511.0
2018-Apr-18 19:30N 37°13' W 122°39'510.9
2018-Apr-18 19:00N 37°08' W 122°38'510.7
2018-Apr-18 18:30N 37°02' W 122°37'8 9.7
2018-Apr-18 17:43N 36°55' W 122°33'2 9.6
2018-Apr-18 17:30N 36°53' W 122°33'2110.2
2018-Apr-18 15:25N 36°34' W 122°23'610.3
2018-Apr-18 14:52N 36°28' W 122°20'8610.3
2018-Apr-18 06:33N 35°14' W 121°28'1 9.7
2018-Apr-18 06:30N 35°14' W 121°27'1510.1
2018-Apr-18 05:03N 35°01' W 121°18'0 9.3
2018-Apr-18 05:00N 35°01' W 121°18'510.0
2018-Apr-18 04:30N 34°56' W 121°15'510.0
2018-Apr-18 04:00N 34°52' W 121°11'910.1
2018-Apr-18 03:08N 34°45' W 121°06'2 9.9
2018-Apr-18 02:58N 34°43' W 121°05'510.0
2018-Apr-18 02:30N 34°39' W 121°02'5 9.9
2018-Apr-18 02:00N 34°35' W 120°58'5 9.7
2018-Apr-18 01:30N 34°31' W 120°55'5 9.6
2018-Apr-18 01:00N 34°27' W 120°52'5 9.5
2018-Apr-18 00:30N 34°25' W 120°47'5 9.6
2018-Apr-18 00:00N 34°24' W 120°41'5 9.5
2018-Apr-17 23:30N 34°23' W 120°36'5 9.7
2018-Apr-17 22:59N 34°21' W 120°30'5 9.4
2018-Apr-17 22:28N 34°20' W 120°24'5 9.3
2018-Apr-17 21:59N 34°19' W 120°19'510.1
2018-Apr-17 21:30N 34°17' W 120°13'610.4
2018-Apr-17 20:56N 34°16' W 120°06'4 9.6
2018-Apr-17 20:30N 34°15' W 120°01'4 8.7
2018-Apr-17 19:59N 34°14' W 119°56'4 8.6
2018-Apr-17 19:30N 34°13' W 119°51'4 8.4
2018-Apr-17 18:59N 34°11' W 119°46'5 8.7
2018-Apr-17 18:24N 34°10' W 119°40'4 9.0
2018-Apr-17 17:57N 34°09' W 119°36'4 9.3
2018-Apr-17 17:29N 34°08' W 119°30'5 9.6
2018-Apr-17 17:00N 34°06' W 119°25'5 9.7
2018-Apr-17 16:30N 34°05' W 119°20'610.6
2018-Apr-17 15:57N 34°03' W 119°13'715.1
2018-Apr-17 15:29N 33°60' W 119°05'712.6
2018-Apr-17 14:56N 33°56' W 118°58'511.6
2018-Apr-17 14:29N 33°54' W 118°53'611.7
2018-Apr-17 14:00N 33°51' W 118°47'611.5
2018-Apr-17 13:30N 33°48' W 118°41'611.6
2018-Apr-17 13:00N 33°45' W 118°35'611.7
2018-Apr-17 12:30N 33°42' W 118°29'611.5
2018-Apr-17 12:00N 33°39' W 118°23'510.0
2018-Apr-17 11:29N 33°39' W 118°17'4 7.9
2018-Apr-17 11:00N 33°42' W 118°15'3 5.5
2018-Apr-17 10:30N 33°44' W 118°17'1 2.5
2018-Apr-17 09:59N 33°46' W 118°16'0 0.0
2018-Apr-17 09:29N 33°46' W 118°16'0 0.0
2018-Apr-17 08:59N 33°46' W 118°16'0 0.0
2018-Apr-17 08:29N 33°46' W 118°16'0 0.0
2018-Apr-17 07:59N 33°46' W 118°16'0 0.0
2018-Apr-17 07:29N 33°46' W 118°16'0 0.0
2018-Apr-17 06:59N 33°46' W 118°16'0 0.0
2018-Apr-17 06:29N 33°46' W 118°16'0 0.0
2018-Apr-17 05:59N 33°46' W 118°16'0 0.0
2018-Apr-17 05:29N 33°46' W 118°16'0 0.0
2018-Apr-17 04:59N 33°46' W 118°16'0 0.0
2018-Apr-17 04:29N 33°46' W 118°16'0 0.0
2018-Apr-17 03:59N 33°46' W 118°16'0 0.0
2018-Apr-17 03:29N 33°46' W 118°16'0 0.0
2018-Apr-17 02:59N 33°46' W 118°16'0 0.0
2018-Apr-17 02:29N 33°46' W 118°16'0 0.0
2018-Apr-17 01:59N 33°46' W 118°16'0 0.0
2018-Apr-17 01:29N 33°46' W 118°16'0 0.0
2018-Apr-17 00:56N 33°46' W 118°16'0 0.0
2018-Apr-17 00:29N 33°46' W 118°16'0 0.0
2018-Apr-16 23:59N 33°46' W 118°16'0 0.0
2018-Apr-16 23:29N 33°46' W 118°16'0 0.0
2018-Apr-16 22:59N 33°46' W 118°16'0 0.0
2018-Apr-16 22:29N 33°46' W 118°16'0 0.0
2018-Apr-16 21:59N 33°46' W 118°16'0 0.0
2018-Apr-16 21:29N 33°46' W 118°16'0 0.0
2018-Apr-16 20:59N 33°46' W 118°16'0 0.0
2018-Apr-16 20:29N 33°46' W 118°16'0 0.0
2018-Apr-16 19:59N 33°46' W 118°16'0 0.0
2018-Apr-16 19:29N 33°46' W 118°16'0 0.0
2018-Apr-16 18:59N 33°46' W 118°16'0 0.0
2018-Apr-16 18:29N 33°46' W 118°16'0 0.0
2018-Apr-16 17:59N 33°46' W 118°16'0 0.0
2018-Apr-16 17:29N 33°46' W 118°16'0 0.0
2018-Apr-16 16:59N 33°46' W 118°16'0 0.0
2018-Apr-16 16:26N 33°46' W 118°16'0 0.0
2018-Apr-16 15:59N 33°46' W 118°16'0 0.0
2018-Apr-16 15:29N 33°46' W 118°16'0 0.0
2018-Apr-16 14:59N 33°46' W 118°16'0 0.0
2018-Apr-16 14:29N 33°46' W 118°16'0 0.0
2018-Apr-16 13:59N 33°46' W 118°16'0 0.0
2018-Apr-16 13:29N 33°46' W 118°16'0 0.0
2018-Apr-16 12:59N 33°46' W 118°16'0 0.0
2018-Apr-16 12:29N 33°46' W 118°16'0 0.6
2018-Apr-16 12:01N 33°46' W 118°17'1 2.2
2018-Apr-16 11:30N 33°44' W 118°17'3 6.3
2018-Apr-16 11:00N 33°42' W 118°14'4 7.8
2018-Apr-16 10:30N 33°38' W 118°12'4 8.1
2018-Apr-16 09:58N 33°35' W 118°09'610.4
2018-Apr-16 09:25N 33°29' W 118°07'1710.4
2018-Apr-16 07:47N 33°14' W 117°59'310.3
2018-Apr-16 07:30N 33°11' W 117°58'610.6
2018-Apr-16 06:55N 33°05' W 117°54'511.8
2018-Apr-16 06:30N 33°01' W 117°52'612.5
2018-Apr-16 05:59N 32°55' W 117°49'613.1
2018-Apr-16 05:30N 32°49' W 117°46'713.3
2018-Apr-16 05:01N 32°43' W 117°43'816.1
2018-Apr-16 04:30N 32°36' W 117°39'917.9
2018-Apr-16 04:00N 32°28' W 117°35'917.6
2018-Apr-16 03:30N 32°19' W 117°31'917.2
2018-Apr-16 02:58N 32°11' W 117°27'817.7
2018-Apr-16 02:30N 32°03' W 117°25'917.7
2018-Apr-16 02:00N 31°54' W 117°22'917.5
2018-Apr-16 01:29N 31°46' W 117°18'817.5
2018-Apr-16 01:00N 31°38' W 117°15'917.5
2018-Apr-16 00:30N 31°30' W 117°12'917.4
2018-Apr-16 00:00N 31°21' W 117°08'917.4
2018-Apr-15 23:30N 31°13' W 117°05'917.5
2018-Apr-15 23:00N 31°05' W 117°02'917.7
2018-Apr-15 22:30N 30°56' W 116°60'917.7
2018-Apr-15 22:00N 30°48' W 116°56'918.3
2018-Apr-15 21:30N 30°39' W 116°52'918.2
2018-Apr-15 21:00N 30°31' W 116°48'1018.2
2018-Apr-15 20:28N 30°22' W 116°44'918.4
2018-Apr-15 19:59N 30°14' W 116°41'918.3
2018-Apr-15 19:29N 30°05' W 116°37'918.5
2018-Apr-15 18:59N 29°56' W 116°34'1018.3
2018-Apr-15 18:28N 29°47' W 116°30'918.2
2018-Apr-15 17:59N 29°39' W 116°27'1118.8
2018-Apr-15 17:24N 29°28' W 116°23'718.8
2018-Apr-15 17:00N 29°21' W 116°20'1118.9
2018-Apr-15 16:26N 29°11' W 116°16'1318.7
2018-Apr-15 15:44N 28°59' W 116°11'518.7
2018-Apr-15 15:28N 28°54' W 116°10'3318.6
2018-Apr-15 13:40N 28°22' W 115°57'418.7
2018-Apr-15 13:26N 28°18' W 115°56'  
Track history (hours):
 
Tides and Currents Weather Stations Pressure Air Temp Water Temp Dewpoint Dewpoint Depression Visibility Wind Speed Wind Dir Waves Ship Positions

MOL Maxim

Last reported at 2018-Apr-20 06:06 UTC. Time now 2018-Apr-24 14:31 UTC.
Position N 38°10' W 124°06'.

Length 302 m; draft 12.2 m.

Type: Ship (hazmat cat A). MMSI: 538003886.

Date/timePositionNaut miles runAvg speedWind from/ knotsBaromVisibWave heightAir tempDewpointWater temp
2018-Apr-20 06:06N 38°10' W 124°06'514.2
2018-Apr-20 05:45N 38°10' W 123°59'514.4
2018-Apr-20 05:26N 38°10' W 123°53'714.3
2018-Apr-20 04:58N 38°10' W 123°45'714.2
2018-Apr-20 04:30N 38°10' W 123°37'713.7
2018-Apr-20 04:00N 38°09' W 123°28'713.0
2018-Apr-20 03:30N 38°08' W 123°20'612.6
2018-Apr-20 03:00N 38°04' W 123°14'612.9
2018-Apr-20 02:30N 37°59' W 123°09'713.0
2018-Apr-20 02:00N 37°56' W 123°02'713.3
2018-Apr-20 01:30N 37°52' W 122°55'713.5
2018-Apr-20 01:00N 37°49' W 122°47'612.7
2018-Apr-20 00:30N 37°45' W 122°41'3 6.5
2018-Apr-20 00:00N 37°46' W 122°37'713.1
2018-Apr-19 23:30N 37°49' W 122°29'510.9
2018-Apr-19 23:00N 37°48' W 122°23'2 4.7
2018-Apr-19 22:31N 37°49' W 122°20'0 0.4
2018-Apr-19 21:58N 37°49' W 122°20'0 0.0
2018-Apr-19 21:28N 37°49' W 122°20'0 0.0
2018-Apr-19 20:55N 37°49' W 122°20'0 0.0
2018-Apr-19 20:28N 37°49' W 122°20'0 0.0
2018-Apr-19 19:58N 37°49' W 122°20'0 0.0
2018-Apr-19 19:28N 37°49' W 122°20'0 0.0
2018-Apr-19 18:58N 37°49' W 122°20'0 0.0
2018-Apr-19 18:28N 37°49' W 122°20'0 0.0
2018-Apr-19 17:58N 37°49' W 122°20'0 0.0
2018-Apr-19 17:28N 37°49' W 122°20'0 0.0
2018-Apr-19 16:58N 37°49' W 122°20'0 0.0
2018-Apr-19 16:28N 37°49' W 122°20'0 0.0
2018-Apr-19 15:58N 37°49' W 122°20'0 0.0
2018-Apr-19 15:28N 37°49' W 122°20'0 0.0
2018-Apr-19 14:58N 37°49' W 122°20'0 0.0
2018-Apr-19 14:28N 37°49' W 122°20'0 0.0
2018-Apr-19 13:58N 37°49' W 122°20'0 0.0
2018-Apr-19 13:25N 37°49' W 122°20'0 0.0
2018-Apr-19 12:58N 37°49' W 122°20'0 0.0
2018-Apr-19 12:28N 37°49' W 122°20'0 0.0
2018-Apr-19 11:58N 37°49' W 122°20'0 0.0
2018-Apr-19 11:28N 37°49' W 122°20'0 0.0
2018-Apr-19 10:58N 37°49' W 122°20'0 0.0
2018-Apr-19 10:28N 37°49' W 122°20'0 0.0
2018-Apr-19 09:55N 37°49' W 122°20'0 0.0
2018-Apr-19 09:28N 37°49' W 122°20'0 0.0
2018-Apr-19 08:58N 37°49' W 122°20'0 0.0
2018-Apr-19 08:28N 37°49' W 122°20'0 0.1
2018-Apr-19 07:58N 37°49' W 122°20'0 0.1
2018-Apr-19 07:28N 37°49' W 122°20'0 0.0
2018-Apr-19 06:58N 37°49' W 122°20'0 0.0
2018-Apr-19 06:28N 37°49' W 122°20'0 0.0
2018-Apr-19 05:58N 37°49' W 122°20'0 0.0
2018-Apr-19 05:28N 37°49' W 122°20'0 0.0
2018-Apr-19 04:58N 37°49' W 122°20'0 0.0
2018-Apr-19 04:28N 37°49' W 122°20'0 0.0
2018-Apr-19 03:58N 37°49' W 122°20'0 0.0
2018-Apr-19 03:28N 37°49' W 122°20'0 0.0
2018-Apr-19 02:58N 37°49' W 122°20'0 0.0
2018-Apr-19 02:28N 37°49' W 122°20'0 0.0
2018-Apr-19 01:58N 37°49' W 122°20'0 0.0
2018-Apr-19 01:28N 37°49' W 122°20'0 0.0
2018-Apr-19 00:58N 37°49' W 122°20'0 0.0
2018-Apr-19 00:30N 37°49' W 122°20'2 3.0
2018-Apr-19 00:00N 37°48' W 122°22'3 6.7
2018-Apr-18 23:30N 37°49' W 122°26'4 7.4
2018-Apr-18 23:00N 37°48' W 122°30'815.1
2018-Apr-18 22:30N 37°46' W 122°39'510.2
2018-Apr-18 22:00N 37°41' W 122°40'611.1
2018-Apr-18 21:30N 37°35' W 122°40'511.0
2018-Apr-18 21:00N 37°30' W 122°40'511.0
2018-Apr-18 20:30N 37°24' W 122°40'611.1
2018-Apr-18 20:00N 37°19' W 122°40'511.0
2018-Apr-18 19:30N 37°13' W 122°39'510.9
2018-Apr-18 19:00N 37°08' W 122°38'510.7
2018-Apr-18 18:30N 37°02' W 122°37'8 9.7
2018-Apr-18 17:43N 36°55' W 122°33'2 9.6
2018-Apr-18 17:30N 36°53' W 122°33'2110.2
2018-Apr-18 15:25N 36°34' W 122°23'610.3
2018-Apr-18 14:52N 36°28' W 122°20'8610.3
2018-Apr-18 06:33N 35°14' W 121°28'1 9.7
2018-Apr-18 06:30N 35°14' W 121°27'1510.1
2018-Apr-18 05:03N 35°01' W 121°18'0 9.3
2018-Apr-18 05:00N 35°01' W 121°18'510.0
2018-Apr-18 04:30N 34°56' W 121°15'510.0
2018-Apr-18 04:00N 34°52' W 121°11'910.1
2018-Apr-18 03:08N 34°45' W 121°06'2 9.9
2018-Apr-18 02:58N 34°43' W 121°05'510.0
2018-Apr-18 02:30N 34°39' W 121°02'5 9.9
2018-Apr-18 02:00N 34°35' W 120°58'5 9.7
2018-Apr-18 01:30N 34°31' W 120°55'5 9.6
2018-Apr-18 01:00N 34°27' W 120°52'5 9.5
2018-Apr-18 00:30N 34°25' W 120°47'5 9.6
2018-Apr-18 00:00N 34°24' W 120°41'5 9.5
2018-Apr-17 23:30N 34°23' W 120°36'5 9.7
2018-Apr-17 22:59N 34°21' W 120°30'5 9.4
2018-Apr-17 22:28N 34°20' W 120°24'5 9.3
2018-Apr-17 21:59N 34°19' W 120°19'510.1
2018-Apr-17 21:30N 34°17' W 120°13'610.4
2018-Apr-17 20:56N 34°16' W 120°06'4 9.6
2018-Apr-17 20:30N 34°15' W 120°01'4 8.7
2018-Apr-17 19:59N 34°14' W 119°56'4 8.6
2018-Apr-17 19:30N 34°13' W 119°51'4 8.4
2018-Apr-17 18:59N 34°11' W 119°46'5 8.7
2018-Apr-17 18:24N 34°10' W 119°40'4 9.0
2018-Apr-17 17:57N 34°09' W 119°36'4 9.3
2018-Apr-17 17:29N 34°08' W 119°30'5 9.6
2018-Apr-17 17:00N 34°06' W 119°25'5 9.7
2018-Apr-17 16:30N 34°05' W 119°20'610.6
2018-Apr-17 15:57N 34°03' W 119°13'715.1
2018-Apr-17 15:29N 33°60' W 119°05'712.6
2018-Apr-17 14:56N 33°56' W 118°58'511.6
2018-Apr-17 14:29N 33°54' W 118°53'611.7
2018-Apr-17 14:00N 33°51' W 118°47'611.5
2018-Apr-17 13:30N 33°48' W 118°41'611.6
2018-Apr-17 13:00N 33°45' W 118°35'611.7
2018-Apr-17 12:30N 33°42' W 118°29'611.5
2018-Apr-17 12:00N 33°39' W 118°23'510.0
2018-Apr-17 11:29N 33°39' W 118°17'4 7.9
2018-Apr-17 11:00N 33°42' W 118°15'3 5.5
2018-Apr-17 10:30N 33°44' W 118°17'1 2.5
2018-Apr-17 09:59N 33°46' W 118°16'0 0.0
2018-Apr-17 09:29N 33°46' W 118°16'0 0.0
2018-Apr-17 08:59N 33°46' W 118°16'0 0.0
2018-Apr-17 08:29N 33°46' W 118°16'0 0.0
2018-Apr-17 07:59N 33°46' W 118°16'0 0.0
2018-Apr-17 07:29N 33°46' W 118°16'0 0.0
2018-Apr-17 06:59N 33°46' W 118°16'0 0.0
2018-Apr-17 06:29N 33°46' W 118°16'0 0.0
2018-Apr-17 05:59N 33°46' W 118°16'0 0.0
2018-Apr-17 05:29N 33°46' W 118°16'0 0.0
2018-Apr-17 04:59N 33°46' W 118°16'0 0.0
2018-Apr-17 04:29N 33°46' W 118°16'0 0.0
2018-Apr-17 03:59N 33°46' W 118°16'0 0.0
2018-Apr-17 03:29N 33°46' W 118°16'0 0.0
2018-Apr-17 02:59N 33°46' W 118°16'0 0.0
2018-Apr-17 02:29N 33°46' W 118°16'0 0.0
2018-Apr-17 01:59N 33°46' W 118°16'0 0.0
2018-Apr-17 01:29N 33°46' W 118°16'0 0.0
2018-Apr-17 00:56N 33°46' W 118°16'0 0.0
2018-Apr-17 00:29N 33°46' W 118°16'0 0.0
2018-Apr-16 23:59N 33°46' W 118°16'0 0.0
2018-Apr-16 23:29N 33°46' W 118°16'0 0.0
2018-Apr-16 22:59N 33°46' W 118°16'0 0.0
2018-Apr-16 22:29N 33°46' W 118°16'0 0.0
2018-Apr-16 21:59N 33°46' W 118°16'0 0.0
2018-Apr-16 21:29N 33°46' W 118°16'0 0.0
2018-Apr-16 20:59N 33°46' W 118°16'0 0.0
2018-Apr-16 20:29N 33°46' W 118°16'0 0.0
2018-Apr-16 19:59N 33°46' W 118°16'0 0.0
2018-Apr-16 19:29N 33°46' W 118°16'0 0.0
2018-Apr-16 18:59N 33°46' W 118°16'0 0.0
2018-Apr-16 18:29N 33°46' W 118°16'0 0.0
2018-Apr-16 17:59N 33°46' W 118°16'0 0.0
2018-Apr-16 17:29N 33°46' W 118°16'0 0.0
2018-Apr-16 16:59N 33°46' W 118°16'0 0.0
2018-Apr-16 16:26N 33°46' W 118°16'0 0.0
2018-Apr-16 15:59N 33°46' W 118°16'0 0.0
2018-Apr-16 15:29N 33°46' W 118°16'0 0.0
2018-Apr-16 14:59N 33°46' W 118°16'0 0.0
2018-Apr-16 14:29N 33°46' W 118°16'0 0.0
2018-Apr-16 13:59N 33°46' W 118°16'0 0.0
2018-Apr-16 13:29N 33°46' W 118°16'0 0.0
2018-Apr-16 12:59N 33°46' W 118°16'0 0.0
2018-Apr-16 12:29N 33°46' W 118°16'0 0.6
2018-Apr-16 12:01N 33°46' W 118°17'1 2.2
2018-Apr-16 11:30N 33°44' W 118°17'3 6.3
2018-Apr-16 11:00N 33°42' W 118°14'4 7.8
2018-Apr-16 10:30N 33°38' W 118°12'4 8.1
2018-Apr-16 09:58N 33°35' W 118°09'610.4
2018-Apr-16 09:25N 33°29' W 118°07'1710.4
2018-Apr-16 07:47N 33°14' W 117°59'310.3
2018-Apr-16 07:30N 33°11' W 117°58'610.6
2018-Apr-16 06:55N 33°05' W 117°54'511.8
2018-Apr-16 06:30N 33°01' W 117°52'612.5
2018-Apr-16 05:59N 32°55' W 117°49'613.1
2018-Apr-16 05:30N 32°49' W 117°46'713.3
2018-Apr-16 05:01N 32°43' W 117°43'816.1
2018-Apr-16 04:30N 32°36' W 117°39'917.9
2018-Apr-16 04:00N 32°28' W 117°35'917.6
2018-Apr-16 03:30N 32°19' W 117°31'917.2
2018-Apr-16 02:58N 32°11' W 117°27'817.7
2018-Apr-16 02:30N 32°03' W 117°25'917.7
2018-Apr-16 02:00N 31°54' W 117°22'917.5
2018-Apr-16 01:29N 31°46' W 117°18'817.5
2018-Apr-16 01:00N 31°38' W 117°15'917.5
2018-Apr-16 00:30N 31°30' W 117°12'917.4
2018-Apr-16 00:00N 31°21' W 117°08'917.4
2018-Apr-15 23:30N 31°13' W 117°05'917.5
2018-Apr-15 23:00N 31°05' W 117°02'917.7
2018-Apr-15 22:30N 30°56' W 116°60'917.7
2018-Apr-15 22:00N 30°48' W 116°56'918.3
2018-Apr-15 21:30N 30°39' W 116°52'918.2
2018-Apr-15 21:00N 30°31' W 116°48'1018.2
2018-Apr-15 20:28N 30°22' W 116°44'918.4
2018-Apr-15 19:59N 30°14' W 116°41'918.3
2018-Apr-15 19:29N 30°05' W 116°37'918.5
2018-Apr-15 18:59N 29°56' W 116°34'1018.3
2018-Apr-15 18:28N 29°47' W 116°30'918.2
2018-Apr-15 17:59N 29°39' W 116°27'1118.8
2018-Apr-15 17:24N 29°28' W 116°23'718.8
2018-Apr-15 17:00N 29°21' W 116°20'1118.9
2018-Apr-15 16:26N 29°11' W 116°16'1318.7
2018-Apr-15 15:44N 28°59' W 116°11'518.7
2018-Apr-15 15:28N 28°54' W 116°10'3318.6
2018-Apr-15 13:40N 28°22' W 115°57'418.7
2018-Apr-15 13:26N 28°18' W 115°56'  

Dump ship's entire track history